Time;durP1;ratioP1;P1;durP2;ratioP2;P2;SDS_P1;SDS_P2;PMS_P1;PMS_P2;Temp;Humidity;BMP_temperature;BMP_pressure;BME280_temperature;BME280_humidity;BME280_pressure;Samples;Min_cycle;Max_cycle;Signal;HPM_P1;HPM_P2
2022/02/08 00:00:04;;;;;;;11.45;5.35;;;;;;;7.23;46.87;100865.22;5055961;28;20056;-76
2022/02/08 00:02:33;;;;;;;15.52;6.35;;;;;;;7.42;45.32;100844.72;5056550;28;20056;-76
2022/02/08 00:05:01;;;;;;;7.85;3.88;;;;;;;7.34;45.38;100861.00;5056397;28;20029;-76
2022/02/08 00:07:29;;;;;;;5.40;3.67;;;;;;;7.56;43.81;100878.59;5056324;28;20036;-75
2022/02/08 00:09:54;;;;;;;8.63;3.30;;;;;;;7.57;44.98;100869.19;5055534;28;20475;-76
2022/02/08 00:12:25;;;;;;;6.10;3.90;;;;;;;7.72;41.60;100852.03;5055788;28;20036;-75
2022/02/08 00:14:52;;;;;;;7.00;3.40;;;;;;;7.75;42.36;100865.25;5055729;28;20115;-75
2022/02/08 00:17:20;;;;;;;6.15;2.03;;;;;;;7.76;42.40;100866.88;5055504;28;20055;-75
2022/02/08 00:19:45;;;;;;;6.95;2.65;;;;;;;7.71;43.31;100869.81;5055431;28;20032;-75
2022/02/08 00:22:19;;;;;;;11.93;3.72;;;;;;;7.70;42.65;100879.25;5055498;28;20037;-75
2022/02/08 00:24:44;;;;;;;14.98;4.65;;;;;;;7.70;42.51;100884.78;5055932;28;20028;-76
2022/02/08 00:27:15;;;;;;;12.10;5.05;;;;;;;7.59;42.19;100886.28;5055461;28;20382;-75
2022/02/08 00:29:46;;;;;;;9.55;3.22;;;;;;;7.67;41.77;100892.94;5055480;28;20029;-75
2022/02/08 00:32:11;;;;;;;7.38;3.08;;;;;;;7.64;41.96;100890.84;5055997;28;20039;-75
2022/02/08 00:34:39;;;;;;;7.78;3.85;;;;;;;7.56;42.09;100896.06;5059253;28;20028;-75
2022/02/08 00:37:07;;;;;;;6.85;3.78;;;;;;;7.59;42.06;100908.44;5042148;28;20059;-75
2022/02/08 00:39:35;;;;;;;12.25;3.20;;;;;;;7.58;41.79;100904.03;5059258;28;20120;-76
2022/02/08 00:42:09;;;;;;;10.95;3.65;;;;;;;7.67;40.86;100895.72;5059224;28;20040;-76
2022/02/08 00:49:44;;;;;;;3.55;2.38;;;;;;;7.72;40.42;100910.19;5076934;28;20032;-76
2022/02/08 00:52:16;;;;;;;1.92;1.42;;;;;;;7.70;40.79;100912.50;5059549;28;20486;-75
2022/02/08 00:54:47;;;;;;;4.10;1.50;;;;;;;7.68;40.31;100916.75;5059217;28;20115;-76
2022/02/08 00:57:20;;;;;;;3.47;1.30;;;;;;;7.77;39.70;100918.34;5058875;28;20033;-75
2022/02/08 00:59:54;;;;;;;6.50;2.35;;;;;;;7.80;39.26;100916.91;5059059;28;20024;-75
2022/02/08 01:02:20;;;;;;;7.05;2.35;;;;;;;7.80;39.97;100928.78;5059016;28;20044;-76
2022/02/08 01:04:53;;;;;;;7.95;2.92;;;;;;;7.69;40.05;100941.34;5058605;28;20477;-76
2022/02/08 01:07:26;;;;;;;10.20;2.42;;;;;;;7.72;40.08;100953.72;5059223;28;20029;-75
2022/02/08 01:10:00;;;;;;;3.53;2.13;;;;;;;7.58;39.97;100940.84;5059804;28;20037;-76
2022/02/08 01:12:29;;;;;;;;;;;;;;;7.68;40.25;100956.34;5076944;28;20485;-76
2022/02/08 01:15:04;;;;;;;19.35;7.68;;;;;;;7.64;39.35;100946.22;5058483;28;19908;-76
2022/02/08 01:17:34;;;;;;;13.23;4.78;;;;;;;7.53;40.01;100945.72;5059008;28;20028;-75
2022/02/08 01:20:04;;;;;;;8.65;2.92;;;;;;;7.54;40.04;100952.88;5058431;28;20025;-75
2022/02/08 01:22:29;;;;;;;14.18;6.40;;;;;;;7.52;39.91;100961.53;5058367;28;20028;-75
2022/02/08 01:24:58;;;;;;;5.38;2.17;;;;;;;7.48;39.81;100948.66;5058505;28;20028;-76
2022/02/08 01:27:30;;;;;;;5.72;1.75;;;;;;;7.48;40.25;100954.19;5058357;28;20036;-76
2022/02/08 01:30:02;;;;;;;3.35;1.42;;;;;;;7.55;39.42;100960.06;5058519;28;20497;-75
2022/02/08 01:42:33;;;;;;;3.08;2.00;;;;;;;7.56;38.44;100964.44;5076347;28;20044;-76
2022/02/08 01:50:33;;;;;;;1.90;1.33;;;;;;;7.40;39.68;100979.91;5076233;28;20044;-76
2022/02/08 01:53:02;;;;;;;6.97;1.42;;;;;;;7.40;40.24;100982.66;5076351;28;20029;-75
2022/02/08 01:55:30;;;;;;;1.98;1.00;;;;;;;7.45;39.36;100982.50;5057770;28;20031;-76
2022/02/08 01:57:58;;;;;;;2.60;1.60;;;;;;;7.45;38.98;100976.97;5058002;28;20394;-76
2022/02/08 02:00:27;;;;;;;3.90;1.73;;;;;;;7.41;39.67;100989.84;5057391;28;20036;-75
2022/02/08 02:02:53;;;;;;;8.95;2.78;;;;;;;7.39;39.67;100989.34;5075585;28;20050;-76
2022/02/08 02:05:21;;;;;;;12.20;2.83;;;;;;;7.40;39.70;100990.97;5057422;28;20536;-76
2022/02/08 02:07:51;;;;;;;6.97;2.03;;;;;;;7.38;39.30;100993.25;5057567;28;20043;-76
2022/02/08 02:10:22;;;;;;;7.97;3.72;;;;;;;7.40;39.81;100990.97;5058084;28;20025;-75
2022/02/08 02:12:50;;;;;;;9.45;3.22;;;;;;;7.44;39.49;101005.81;5057440;28;20028;-75
2022/02/08 02:15:21;;;;;;;9.90;4.22;;;;;;;7.30;41.05;101008.72;5057454;28;20028;-75
2022/02/08 02:17:49;;;;;;;10.77;4.10;;;;;;;7.01;41.32;100979.59;5057408;28;20123;-76
2022/02/08 02:20:16;;;;;;;4.70;2.65;;;;;;;7.19;41.90;101008.19;5057507;28;20027;-76
2022/02/08 02:22:45;;;;;;;2.22;1.80;;;;;;;7.11;42.20;101017.25;5075383;28;20025;-76
2022/02/08 02:25:22;;;;;;;7.00;2.03;;;;;;;7.09;42.71;101019.53;5057165;28;20112;-76
2022/02/08 02:27:49;;;;;;;7.43;2.13;;;;;;;7.16;42.39;101036.50;5075257;28;20379;-76
2022/02/08 02:30:16;;;;;;;4.68;1.92;;;;;;;7.16;40.79;101036.50;5057509;28;20029;-76
2022/02/08 02:32:47;;;;;;;1.73;1.30;;;;;;;7.24;39.77;101029.34;5057624;28;20093;-76
2022/02/08 02:35:15;;;;;;;2.83;1.83;;;;;;;7.33;40.61;101046.81;5056939;28;20024;-75
2022/02/08 02:37:41;;;;;;;1.65;1.45;;;;;;;7.42;39.04;101035.78;5057598;28;20032;-75
2022/02/08 02:40:11;;;;;;;3.40;1.20;;;;;;;7.43;39.08;101037.41;5056968;28;20464;-76
2022/02/08 02:42:38;;;;;;;2.47;1.30;;;;;;;7.44;39.52;101048.16;5057152;28;20078;-76
2022/02/08 02:45:10;;;;;;;2.95;1.13;;;;;;;7.44;39.59;101052.88;5057916;28;20395;-76
2022/02/08 02:47:39;;;;;;;2.75;1.05;;;;;;;7.41;39.58;101045.22;5058701;28;20133;-76
2022/02/08 02:50:09;;;;;;;2.97;1.20;;;;;;;7.35;39.83;101042.59;5075466;28;20099;-75
2022/02/08 02:52:37;;;;;;;4.57;1.90;;;;;;;7.43;40.65;101051.25;5056695;28;20040;-75
2022/02/08 02:55:07;;;;;;;1.50;1.35;;;;;;;7.31;40.68;101049.91;5056255;28;20028;-75
2022/02/08 02:57:35;;;;;;;5.40;1.42;;;;;;;7.25;41.27;101053.97;5057188;28;20119;-75
2022/02/08 03:00:10;;;;;;;4.57;1.55;;;;;;;7.11;41.58;101046.88;5056593;28;20115;-76
2022/02/08 03:18:39;;;;;;;15.23;6.57;;;;;;;6.87;41.88;101074.91;5074752;28;20450;-76
2022/02/08 03:21:06;;;;;;;4.90;2.80;;;;;;;6.95;40.45;101079.69;5056241;28;20056;-76
2022/02/08 03:23:32;;;;;;;3.17;1.77;;;;;;;7.04;40.79;101094.38;5056132;28;20532;-75
2022/02/08 03:26:01;;;;;;;4.07;1.70;;;;;;;6.90;40.17;101071.50;5055968;28;20020;-75
2022/02/08 03:28:31;;;;;;;6.68;1.85;;;;;;;6.92;40.98;101085.84;5056028;28;20082;-76
2022/02/08 03:30:59;;;;;;;4.80;2.20;;;;;;;7.02;40.33;101088.34;5056356;28;20028;-76
2022/02/08 03:33:27;;;;;;;18.65;11.07;;;;;;;7.02;40.29;101085.56;5055709;28;20045;-75
2022/02/08 03:35:55;;;;;;;6.63;2.97;;;;;;;7.14;40.53;101093.28;5055643;28;20052;-75
2022/02/08 03:38:40;;;;;;;3.25;1.60;;;;;;;7.09;39.69;101091.50;5055931;28;20033;-76
2022/02/08 03:41:10;;;;;;;5.25;1.92;;;;;;;7.11;39.37;101096.69;5055954;28;20024;-76
2022/02/08 03:43:45;;;;;;;1.65;1.20;;;;;;;6.99;39.89;101089.00;5056490;28;20051;-76
2022/02/08 03:46:16;;;;;;;3.45;1.20;;;;;;;6.99;39.92;101091.75;5055757;28;20111;-76
2022/02/08 03:48:44;;;;;;;5.93;2.05;;;;;;;7.05;38.83;101096.03;5056329;28;20549;-75
2022/02/08 03:51:15;;;;;;;1.88;1.10;;;;;;;7.10;39.61;101098.66;5056082;28;20032;-75
2022/02/08 03:53:48;;;;;;;8.02;1.10;;;;;;;7.15;39.06;101095.75;5056299;28;20025;-76
2022/02/08 03:56:21;;;;;;;4.53;1.30;;;;;;;7.17;39.08;101103.72;5055712;28;20039;-76
2022/02/08 03:58:55;;;;;;;2.80;1.10;;;;;;;7.18;38.93;101100.63;5055459;28;20032;-76
2022/02/08 04:04:25;;;;;;;3.80;1.05;;;;;;;7.24;38.52;101104.91;5073950;28;20041;-76
2022/02/08 04:06:53;;;;;;;4.65;1.27;;;;;;;7.29;38.37;101101.19;5073655;28;20033;-76
2022/02/08 04:09:22;;;;;;;8.30;1.73;;;;;;;7.35;38.66;101117.34;5059732;28;20033;-75
2022/02/08 04:12:04;;;;;;;4.32;1.73;;;;;;;7.34;38.12;101110.16;5043775;28;20044;-75
2022/02/08 04:14:58;;;;;;;2.75;1.00;;;;;;;7.44;37.29;101122.91;5059368;28;20025;-75
2022/02/08 04:31:23;;;;;;;6.40;2.72;;;;;;;7.43;37.82;101131.53;5077625;28;19915;-76
2022/02/08 04:42:48;;;;;;;2.78;1.73;;;;;;;7.14;38.90;101160.56;5077475;28;20041;-76
2022/02/08 04:44:46;;;;;;;1.55;1.40;;;;;;;7.06;38.96;101173.19;5059283;28;20044;-76
2022/02/08 04:47:22;;;;;;;5.70;1.63;;;;;;;7.06;39.08;101169.59;5059142;28;20024;-76
2022/02/08 04:49:54;;;;;;;3.53;2.40;;;;;;;7.17;39.29;101170.97;5077013;28;20024;-76
2022/02/08 04:52:23;;;;;;;3.10;1.63;;;;;;;7.13;39.29;101181.03;5054885;28;20060;-75
2022/02/08 04:55:10;;;;;;;4.28;1.80;;;;;;;7.06;39.88;101180.66;5059055;28;20028;-75
2022/02/08 05:36:27;;;;;;;8.77;5.03;;;;;;;7.08;38.96;101250.34;5077672;28;20059;-75
2022/02/08 05:44:10;;;;;;;6.00;2.90;;;;;;;7.03;40.16;101258.75;5076034;28;20063;-76
2022/02/08 05:46:50;;;;;;;8.25;2.42;;;;;;;6.97;40.49;101265.56;5057874;28;20029;-76
2022/02/08 05:54:46;;;;;;;5.70;2.75;;;;;;;6.83;40.87;101260.91;5075775;28;20051;-75
2022/02/08 05:57:18;;;;;;;3.92;2.83;;;;;;;6.74;41.22;101268.28;5057538;28;20116;-75
2022/02/08 05:59:50;;;;;;;12.10;3.72;;;;;;;6.79;41.34;101262.63;5058033;28;20032;-76
2022/02/08 06:02:18;;;;;;;5.13;1.95;;;;;;;6.77;40.23;101275.97;5076014;28;20029;-76
2022/02/08 06:04:44;;;;;;;6.22;2.20;;;;;;;6.87;39.52;101272.16;5058133;28;20063;-76
2022/02/08 06:07:15;;;;;;;3.22;1.73;;;;;;;6.81;40.26;101273.38;5057358;28;20035;-76
2022/02/08 06:09:41;;;;;;;8.82;1.67;;;;;;;7.02;40.38;101287.56;5057689;28;20040;-75
2022/02/08 06:12:10;;;;;;;3.00;1.58;;;;;;;6.90;39.58;101284.53;5058082;28;20119;-76
2022/02/08 06:14:43;;;;;;;1.63;1.20;;;;;;;6.96;39.75;101286.88;5057821;28;20040;-76
2022/02/08 06:17:08;;;;;;;7.60;1.70;;;;;;;6.98;39.85;101289.34;5057450;28;20029;-75
2022/02/08 06:19:39;;;;;;;4.43;2.10;;;;;;;6.96;39.43;101280.53;5057347;28;20123;-76
2022/02/08 06:22:04;;;;;;;3.03;1.95;;;;;;;7.07;39.68;101298.53;5057290;28;20082;-76
2022/02/08 06:24:32;;;;;;;3.67;1.52;;;;;;;7.14;39.15;101311.94;5057803;28;20020;-75
2022/02/08 06:26:58;;;;;;;8.73;2.20;;;;;;;7.13;39.93;101308.34;5057221;28;20082;-76
2022/02/08 06:29:23;;;;;;;8.40;2.15;;;;;;;7.07;39.73;101304.06;5057244;28;20032;-75
2022/02/08 06:31:54;;;;;;;3.28;1.83;;;;;;;7.12;40.26;101315.00;5056880;28;20041;-76
2022/02/08 06:34:23;;;;;;;5.57;2.58;;;;;;;7.63;39.50;101305.50;5057873;28;20414;-75
2022/02/08 06:37:00;;;;;;;11.00;5.93;;;;;;;8.55;37.29;101303.84;5053369;28;20487;-76
2022/02/08 06:39:33;;;;;;;10.80;4.32;;;;;;;9.28;36.36;101315.22;5053622;28;20029;-76
2022/02/08 06:41:59;;;;;;;106.03;40.40;;;;;;;9.95;35.48;101311.03;5053923;28;20102;-76
2022/02/08 06:44:24;;;;;;;61.70;26.02;;;;;;;10.55;34.04;101300.88;5053686;28;20475;-76
2022/02/08 06:46:50;;;;;;;25.65;13.15;;;;;;;10.72;33.29;101309.94;5053768;28;20039;-76
2022/02/08 06:49:19;;;;;;;15.70;7.63;;;;;;;10.71;32.90;101316.66;5053583;28;20032;-75
2022/02/08 06:51:47;;;;;;;6.20;2.58;;;;;;;11.15;31.99;101310.78;5053514;28;20037;-75
2022/02/08 06:54:16;;;;;;;4.68;2.70;;;;;;;11.07;31.11;101318.03;5053436;28;20025;-76
2022/02/08 06:56:45;;;;;;;3.95;1.13;;;;;;;10.89;29.91;101331.28;5053402;28;20037;-76
2022/02/08 06:59:17;;;;;;;3.92;2.20;;;;;;;11.27;30.22;101322.00;5053260;28;20037;-76
2022/02/08 07:01:43;;;;;;;5.15;1.70;;;;;;;11.54;29.39;101337.34;5053025;28;20072;-76
2022/02/08 07:04:14;;;;;;;4.70;1.95;;;;;;;11.71;29.41;101333.56;5053447;28;20044;-76
2022/02/08 07:06:46;;;;;;;6.63;2.25;;;;;;;11.62;29.78;101349.59;5053355;28;20052;-75
2022/02/08 07:09:13;;;;;;;3.65;1.40;;;;;;;11.34;28.93;101330.59;5053268;28;20093;-76
2022/02/08 07:11:40;;;;;;;5.20;2.63;;;;;;;10.70;29.81;101345.63;5053209;28;20061;-76
2022/02/08 07:14:08;;;;;;;2.55;1.30;;;;;;;9.96;31.37;101341.31;5052774;28;20064;-75
2022/02/08 07:16:39;;;;;;;2.90;1.85;;;;;;;9.75;32.78;101362.59;5053591;28;20360;-76
2022/02/08 07:19:04;;;;;;;4.97;2.22;;;;;;;9.51;33.49;101362.28;5053480;28;20051;-75
2022/02/08 07:21:36;;;;;;;9.15;2.40;;;;;;;9.26;33.88;101370.25;5053068;28;20522;-76
2022/02/08 07:24:21;;;;;;;31.70;15.98;;;;;;;9.13;34.16;101366.50;5054410;28;20048;-76
2022/02/08 07:26:47;;;;;;;6.97;3.10;;;;;;;9.08;33.77;101382.50;5052592;28;20025;-75
2022/02/08 07:29:14;;;;;;;14.20;7.40;;;;;;;9.76;33.08;101368.97;5052827;28;20119;-76
2022/02/08 07:31:53;;;;;;;23.73;14.15;;;;;;;9.37;33.53;101376.31;5054236;28;20029;-76
2022/02/08 07:35:08;;;;;;;7.07;2.65;;;;;;;10.02;32.75;101380.06;5052731;28;20029;-75
2022/02/08 07:37:22;;;;;;;2.67;1.65;;;;;;;10.45;32.34;101371.63;5069285;28;20067;-76
2022/02/08 07:39:52;;;;;;;5.93;1.88;;;;;;;10.71;31.25;101382.63;5056230;28;20033;-76
2022/02/08 07:42:25;;;;;;;4.78;2.50;;;;;;;11.40;30.58;101375.81;5057623;28;20085;-77
2022/02/08 07:44:53;;;;;;;6.60;2.85;;;;;;;11.33;30.20;101387.50;5056310;28;20035;-76
2022/02/08 07:47:20;;;;;;;7.68;1.55;;;;;;;11.63;29.53;101395.81;5056528;28;20049;-76
2022/02/08 07:49:48;;;;;;;2.55;1.83;;;;;;;12.21;28.95;101397.59;5056438;28;20467;-76
2022/02/08 07:52:13;;;;;;;7.43;2.75;;;;;;;11.69;29.63;101417.56;5057171;28;20032;-76
2022/02/08 07:54:42;;;;;;;9.20;4.90;;;;;;;11.53;30.18;101392.25;5056941;28;20405;-76
2022/02/08 07:57:10;;;;;;;9.80;2.88;;;;;;;12.02;29.93;101392.50;5056618;28;20070;-76
2022/02/08 07:59:35;;;;;;;2.55;1.85;;;;;;;11.92;29.85;101395.72;5056956;28;20024;-76
2022/02/08 08:02:03;;;;;;;24.45;12.77;;;;;;;11.68;29.07;101387.25;5056500;28;20524;-76
2022/02/08 08:04:32;;;;;;;8.15;3.65;;;;;;;12.28;29.23;101391.44;5057023;28;20101;-76
2022/02/08 08:07:03;;;;;;;3.55;2.30;;;;;;;11.83;28.70;101394.19;5056792;28;20032;-76
2022/02/08 08:09:39;;;;;;;3.10;1.60;;;;;;;11.76;29.32;101406.66;5056430;28;20066;-76
2022/02/08 08:12:05;;;;;;;6.47;3.30;;;;;;;11.42;29.82;101404.16;5056714;28;20036;-76
2022/02/08 08:14:32;;;;;;;3.65;1.95;;;;;;;12.28;29.16;101402.59;5075177;28;20098;-76
2022/02/08 08:19:52;;;;;;;6.93;2.80;;;;;;;11.42;28.37;101404.16;5075756;28;20102;-76
2022/02/08 08:22:20;;;;;;;3.30;1.77;;;;;;;11.58;29.52;101407.16;5056609;28;20067;-77
2022/02/08 08:24:47;;;;;;;8.60;1.50;;;;;;;11.58;29.16;101415.53;5057396;28;20021;-76
2022/02/08 08:27:18;;;;;;;3.22;1.10;;;;;;;11.16;28.68;101426.63;5057310;28;20036;-76
2022/02/08 08:29:46;;;;;;;5.60;3.22;;;;;;;11.06;29.36;101433.38;5055701;28;20123;-77
2022/02/08 08:32:14;;;;;;;5.03;3.08;;;;;;;10.98;29.87;101460.13;5074182;28;20024;-76
2022/02/08 08:34:40;;;;;;;3.10;1.60;;;;;;;11.32;30.59;101436.03;5055927;28;20090;-76
2022/02/08 08:37:06;;;;;;;7.57;3.17;;;;;;;11.72;29.82;101436.41;5055373;28;20143;-76
2022/02/08 08:39:46;;;;;;;6.18;2.47;;;;;;;12.40;29.27;101438.91;5056101;28;20115;-76
2022/02/08 08:48:32;;;;;;;2.65;1.63;;;;;;;11.95;29.67;101447.22;5073610;28;20517;-76
2022/02/08 08:50:34;;;;;;;;;;;;;;;11.85;29.94;101447.66;5074925;28;20036;-76
2022/02/08 08:53:07;;;;;;;2.97;1.15;;;;;;;11.68;29.63;101454.16;5056658;28;19909;-76
2022/02/08 08:55:35;;;;;;;3.00;1.63;;;;;;;11.19;29.38;101479.69;5060519;28;20417;-76
2022/02/08 08:58:02;;;;;;;6.00;2.15;;;;;;;11.54;30.79;101446.03;5059181;28;20258;-76
2022/02/08 09:00:35;;;;;;;3.70;1.30;;;;;;;11.10;30.72;101461.41;5059438;28;20032;-76
2022/02/08 09:03:08;;;;;;;2.58;1.17;;;;;;;10.82;30.70;101464.63;5077127;28;20025;-76
2022/02/08 09:05:37;;;;;;;7.70;3.50;;;;;;;10.87;30.98;101464.44;5059564;28;20555;-76
2022/02/08 09:08:06;;;;;;;5.65;2.30;;;;;;;10.75;32.20;101472.66;5059742;28;20481;-76
2022/02/08 09:10:48;;;;;;;4.82;2.72;;;;;;;10.30;31.19;101456.41;5059315;28;20028;-76
2022/02/08 09:13:29;;;;;;;4.38;2.45;;;;;;;10.72;31.55;101457.47;5059529;28;20458;-76
2022/02/08 09:16:07;;;;;;;2.30;1.70;;;;;;;10.35;31.81;101450.69;5059326;28;20056;-76
2022/02/08 09:29:23;;;;;;;7.70;3.90;;;;;;;10.01;33.17;101493.22;5076919;28;20039;-76
2022/02/08 09:32:03;;;;;;;3.97;2.97;;;;;;;10.69;31.88;101479.56;5058796;28;20056;-76
2022/02/08 09:34:33;;;;;;;4.60;2.03;;;;;;;10.55;32.99;101490.09;5077092;28;20020;-76
2022/02/08 09:36:58;;;;;;;4.57;1.52;;;;;;;10.22;33.26;101482.25;5075945;28;20045;-76
2022/02/08 09:39:24;;;;;;;2.53;1.50;;;;;;;10.14;33.15;101483.09;5058943;28;20101;-76
2022/02/08 09:41:55;;;;;;;2.20;1.98;;;;;;;10.27;32.92;101484.88;5058217;28;20025;-76
2022/02/08 09:44:26;;;;;;;3.05;2.15;;;;;;;10.76;32.55;101479.88;5076149;28;20020;-76
2022/02/08 09:46:58;;;;;;;5.60;3.00;;;;;;;10.89;33.57;101494.75;5075701;28;20021;-76
2022/02/08 09:49:27;;;;;;;3.35;1.60;;;;;;;11.04;32.75;101482.22;5058183;28;20028;-76
2022/02/08 09:51:56;;;;;;;7.32;2.42;;;;;;;11.05;31.63;101503.34;5059139;28;20383;-76
2022/02/08 09:54:24;;;;;;;5.75;2.35;;;;;;;11.02;32.86;101505.69;5058060;28;20395;-76
2022/02/08 09:56:53;;;;;;;8.00;2.15;;;;;;;11.73;31.83;101499.38;5058614;28;20515;-76
2022/02/08 09:59:23;;;;;;;3.83;2.05;;;;;;;11.54;32.25;101508.19;5076187;28;20103;-76
2022/02/08 10:01:58;;;;;;;7.45;3.22;;;;;;;11.55;31.58;101500.63;5058499;28;20043;-76
2022/02/08 10:04:26;;;;;;;1.88;1.73;;;;;;;11.55;31.37;101501.44;5057896;28;20040;-76
2022/02/08 10:06:52;;;;;;;5.53;1.40;;;;;;;11.04;30.72;101518.44;5058089;28;20528;-76
2022/02/08 10:09:33;;;;;;;4.63;2.20;;;;;;;10.58;31.27;101506.94;5057790;28;20103;-76
2022/02/08 10:11:59;;;;;;;1.88;1.45;;;;;;;10.30;30.54;101495.38;5057698;28;20058;-76
2022/02/08 10:22:18;;;;;;;2.20;1.23;;;;;;;10.83;29.92;101518.34;5075893;28;20037;-76
2022/02/08 10:24:54;;;;;;;17.88;6.10;;;;;;;10.65;31.40;101523.13;5057938;28;20348;-76
2022/02/08 10:27:44;;;;;;;25.98;10.95;;;;;;;11.08;30.62;101524.97;5041566;28;20028;-76
2022/02/08 10:38:45;;;;;;;6.68;4.35;;;;;;;11.59;29.29;101529.47;5075907;28;20520;-76
2022/02/08 10:41:21;;;;;;;2.97;1.85;;;;;;;12.13;28.75;101515.66;5058317;28;20127;-76
2022/02/08 10:44:05;;;;;;;6.82;3.25;;;;;;;11.92;28.30;101506.47;5075674;28;20032;-76
2022/02/08 10:46:36;;;;;;;5.57;2.50;;;;;;;11.61;28.64;101515.19;5058607;28;20458;-76
2022/02/08 10:49:06;;;;;;;7.10;3.78;;;;;;;11.62;28.59;101508.47;5057826;28;20035;-76
2022/02/08 10:51:56;;;;;;;13.02;7.53;;;;;;;12.07;28.19;101517.84;5075908;28;20028;-76
2022/02/08 10:56:59;;;;;;;5.65;4.20;;;;;;;12.13;29.18;101531.59;5076421;28;20043;-76
2022/02/08 10:59:31;;;;;;;6.32;3.47;;;;;;;11.71;29.11;101515.59;5058369;28;20111;-76
2022/02/08 11:02:12;;;;;;;3.10;1.58;;;;;;;11.51;29.46;101544.28;5058819;28;20043;-76
2022/02/08 11:04:57;;;;;;;5.45;3.78;;;;;;;11.87;29.42;101495.53;5058427;28;20024;-76
2022/02/08 11:10:15;;;;;;;9.77;6.25;;;;;;;11.95;29.65;101525.31;5076563;28;20036;-76
2022/02/08 11:20:40;;;;;;;12.00;7.90;;;;;;;12.42;28.87;101539.06;5080518;28;20024;-77
2022/02/08 11:23:25;;;;;;;9.90;6.10;;;;;;;12.14;30.12;101527.63;5074289;28;20027;-76
2022/02/08 11:25:55;;;;;;;30.73;14.85;;;;;;;11.93;29.39;101533.19;5074552;28;20021;-76
2022/02/08 11:28:37;;;;;;;6.03;3.33;;;;;;;12.00;30.18;101520.38;5057258;28;20383;-76
2022/02/08 11:34:03;;;;;;;15.82;9.10;;;;;;;11.85;30.54;101486.69;5074296;28;20032;-76
2022/02/08 11:53:15;;;;;;;10.02;3.80;;;;;;;12.59;27.99;101522.94;5053566;28;20090;-76
2022/02/08 11:56:22;;;;;;;4.55;3.00;;;;;;;11.85;28.68;101504.22;5053117;28;20029;-76
2022/02/08 12:10:03;;;;;;;5.57;1.58;;;;;;;11.98;29.21;101531.03;5053824;28;20123;-75
2022/02/08 12:12:48;;;;;;;2.17;1.98;;;;;;;12.05;29.02;101525.75;5052309;28;20029;-75
2022/02/08 12:32:17;;;;;;;23.17;14.00;;;;;;;11.90;29.33;101528.31;5057697;28;20032;-76
2022/02/08 12:57:07;;;;;;;3.38;3.05;;;;;;;12.15;27.48;101515.34;5077273;28;20119;-76
2022/02/08 14:01:30;;;;;;;9.23;5.38;;;;;;;11.78;28.82;101492.78;5077177;28;20505;-76
2022/02/08 14:11:03;;;;;;;6.53;3.38;;;;;;;12.19;28.18;101505.09;5080790;28;20036;-76
2022/02/08 14:14:32;;;;;;;14.35;7.40;;;;;;;12.38;28.41;101511.00;5078924;28;20551;-76
2022/02/08 14:19:31;;;;;;;8.43;4.72;;;;;;;11.92;28.50;101521.22;5075798;28;20040;-76
2022/02/08 14:22:11;;;;;;;33.42;17.77;;;;;;;11.70;29.46;101529.88;5061647;28;20035;-75
2022/02/08 14:29:59;;;;;;;10.45;6.70;;;;;;;11.67;29.22;101513.84;5075464;28;20093;-75
2022/02/08 14:32:42;;;;;;;14.93;8.82;;;;;;;11.78;29.77;101515.09;5057863;28;20504;-76
2022/02/08 14:49:07;;;;;;;9.40;6.32;;;;;;;11.87;29.00;101518.66;5075161;28;20047;-75
2022/02/08 15:08:17;;;;;;;11.60;5.15;;;;;;;11.72;30.41;101505.28;5074777;28;20123;-76
2022/02/08 15:10:50;;;;;;;11.85;7.18;;;;;;;11.70;30.24;101504.81;5056452;28;20025;-76
2022/02/08 15:13:20;;;;;;;12.13;4.18;;;;;;;11.63;30.37;101512.88;5057087;28;20028;-76
2022/02/08 15:16:04;;;;;;;8.90;5.28;;;;;;;11.58;30.22;101513.09;5056797;28;20031;-76
2022/02/08 15:18:33;;;;;;;5.93;4.07;;;;;;;11.52;30.80;101516.06;5056587;28;20029;-76
2022/02/08 15:21:09;;;;;;;16.83;9.60;;;;;;;11.41;30.52;101512.03;5057078;28;20518;-76
2022/02/08 15:23:40;;;;;;;14.38;6.72;;;;;;;11.29;30.87;101497.97;5057210;28;20036;-75
2022/02/08 15:26:06;;;;;;;10.88;6.78;;;;;;;11.47;30.75;101534.97;5057097;28;20029;-74
2022/02/08 15:28:35;;;;;;;7.50;5.82;;;;;;;11.36;30.86;101537.31;5074802;28;20036;-75
2022/02/08 15:31:01;;;;;;;9.35;5.55;;;;;;;11.46;31.14;101542.50;5056416;28;20459;-74
2022/02/08 15:33:27;;;;;;;17.73;6.57;;;;;;;11.24;30.99;101531.63;5056930;28;20037;-75
2022/02/08 15:35:53;;;;;;;10.18;6.05;;;;;;;11.22;30.98;101533.91;5056200;28;20119;-75
2022/02/08 15:38:21;;;;;;;11.13;6.97;;;;;;;11.22;31.22;101531.13;5057079;28;20028;-75
2022/02/08 15:40:50;;;;;;;63.22;26.38;;;;;;;11.16;30.78;101526.91;5074094;28;20393;-74
2022/02/08 15:43:18;;;;;;;42.80;19.60;;;;;;;11.13;30.89;101527.56;5071145;28;20040;-75
2022/02/08 15:45:51;;;;;;;19.83;9.38;;;;;;;11.04;30.83;101524.81;5057143;28;20036;-76
2022/02/08 15:48:22;;;;;;;11.05;7.13;;;;;;;10.91;30.69;101511.91;5057107;28;20119;-76
2022/02/08 16:05:13;;;;;;;9.65;5.95;;;;;;;10.74;31.85;101529.50;5075099;28;20044;-76
2022/02/08 16:07:19;;;;;;;10.30;6.40;;;;;;;10.53;31.60;101536.91;5074670;28;20046;-76
2022/02/08 16:28:26;;;;;;;17.58;10.95;;;;;;;10.24;31.63;101557.88;5075511;28;20036;-76
2022/02/08 16:54:58;;;;;;;18.42;7.80;;;;;;;9.88;29.64;101589.53;5077694;28;20036;-76
2022/02/08 16:57:33;;;;;;;12.95;7.47;;;;;;;9.91;29.30;101590.88;5058400;28;20491;-76
2022/02/08 17:00:02;;;;;;;18.77;8.98;;;;;;;9.84;29.52;101598.84;5074093;28;20063;-76
2022/02/08 17:02:30;;;;;;;15.77;8.30;;;;;;;9.76;29.20;101606.03;5073582;28;20391;-76
2022/02/08 17:04:57;;;;;;;20.65;12.50;;;;;;;9.73;30.26;101601.09;5055894;28;20085;-76
2022/02/08 17:07:25;;;;;;;21.23;11.93;;;;;;;9.65;29.60;101604.69;5055535;28;20024;-76
2022/02/08 17:10:03;;;;;;;19.25;12.35;;;;;;;9.68;29.91;101612.38;5055683;28;20035;-76
2022/02/08 17:12:41;;;;;;;16.75;10.38;;;;;;;9.57;28.97;101605.47;5056573;28;20032;-76
2022/02/08 17:15:35;;;;;;;25.30;16.92;;;;;;;9.40;29.92;101622.91;5057938;28;20063;-76
2022/02/08 17:46:11;;;;;;;92.18;54.10;;;;;;;8.49;36.78;101648.25;5076560;28;20031;-76
2022/02/08 17:48:41;;;;;;;72.75;46.00;;;;;;;8.48;36.40;101646.63;5058882;28;20037;-76
2022/02/08 17:51:09;;;;;;;70.18;43.28;;;;;;;8.45;36.57;101652.78;5058809;28;20029;-76
2022/02/08 17:53:38;;;;;;;86.55;50.13;;;;;;;8.30;36.29;101645.59;5058628;28;20036;-78
2022/02/08 17:56:19;;;;;;;71.82;43.42;;;;;;;8.21;36.19;101658.59;5077177;28;20024;-76
2022/02/08 17:58:49;;;;;;;66.22;42.25;;;;;;;8.13;36.05;101646.25;5076231;28;20104;-76
2022/02/08 18:01:17;;;;;;;80.00;44.40;;;;;;;8.06;37.12;101662.50;5058320;28;20033;-76
2022/02/08 18:03:46;;;;;;;67.63;45.55;;;;;;;8.06;36.60;101662.50;5058407;28;20142;-76
2022/02/08 18:06:11;;;;;;;63.47;41.58;;;;;;;7.99;36.45;101670.41;5057879;28;20029;-76
2022/02/08 18:08:39;;;;;;;75.18;44.15;;;;;;;8.09;36.53;101672.94;5058266;28;20039;-76
2022/02/08 18:11:04;;;;;;;58.50;35.45;;;;;;;8.07;36.59;101664.13;5058030;28;20119;-76
2022/02/08 18:13:38;;;;;;;54.30;34.95;;;;;;;8.08;36.33;101676.84;5057823;28;20063;-76
2022/02/08 18:16:06;;;;;;;46.90;32.50;;;;;;;7.92;36.14;101678.31;5058395;28;20123;-76
2022/02/08 18:18:39;;;;;;;62.97;40.22;;;;;;;7.85;37.00;101685.09;5075915;28;20094;-76
2022/02/08 18:23:48;;;;;;;58.70;36.30;;;;;;;7.87;36.58;101684.78;5072846;28;20418;-76
2022/02/08 19:13:23;;;;;;;135.10;85.18;;;;;;;7.04;42.03;101725.34;5076409;28;20051;-76
2022/02/08 19:16:12;;;;;;;137.13;81.70;;;;;;;7.04;42.10;101741.97;5075379;28;20062;-76
2022/02/08 19:18:45;;;;;;;130.50;77.25;;;;;;;6.92;43.28;101738.81;5075731;28;20044;-76
2022/02/08 19:21:34;;;;;;;120.40;72.30;;;;;;;6.85;43.49;101744.72;5058164;28;20102;-76
2022/02/08 19:24:02;;;;;;;111.03;70.78;;;;;;;6.83;43.26;101747.81;5076710;28;20020;-76
2022/02/08 19:26:30;;;;;;;124.68;70.97;;;;;;;6.77;42.59;101751.78;5058410;28;20055;-76
2022/02/08 19:28:58;;;;;;;129.75;78.82;;;;;;;6.83;42.45;101753.34;5058876;28;20035;-76
2022/02/08 19:31:26;;;;;;;129.13;71.65;;;;;;;6.81;42.94;101752.78;5060640;28;20365;-76
2022/02/08 19:33:55;;;;;;;117.75;68.57;;;;;;;6.72;42.96;101749.09;5061362;28;20124;-76
2022/02/08 19:36:25;;;;;;;118.80;69.95;;;;;;;6.72;42.62;101746.31;5053919;28;20044;-76